createdAt,value
2018-08-22T00:02:59.301Z,21.90
2018-08-22T00:07:54.465Z,21.80
2018-08-22T00:12:49.353Z,21.80
2018-08-22T00:17:44.059Z,21.80
2018-08-22T00:22:39.730Z,21.70
2018-08-22T00:27:34.545Z,21.60
2018-08-22T00:32:29.207Z,21.50
2018-08-22T00:37:23.717Z,21.40
2018-08-22T00:42:18.566Z,21.30
2018-08-22T00:47:13.466Z,21.30
2018-08-22T00:52:07.553Z,21.20
2018-08-22T00:57:02.120Z,21.20
2018-08-22T01:01:57.129Z,21.20
2018-08-22T01:06:51.711Z,21.10
2018-08-22T01:11:47.201Z,21.10
2018-08-22T01:16:41.824Z,21.00
2018-08-22T01:21:36.860Z,21.00
2018-08-22T01:26:31.574Z,21.00
2018-08-22T01:31:28.414Z,20.90
2018-08-22T01:36:23.136Z,20.80
2018-08-22T01:41:18.991Z,20.70
2018-08-22T01:46:13.617Z,20.60
2018-08-22T01:51:08.249Z,20.60
2018-08-22T01:56:02.745Z,20.60
2018-08-22T02:00:57.498Z,20.60
2018-08-22T02:05:52.222Z,20.50
2018-08-22T02:10:47.137Z,20.50
2018-08-22T02:15:41.711Z,20.40
2018-08-22T02:20:37.140Z,20.30
2018-08-22T02:25:31.752Z,20.20
2018-08-22T02:30:26.765Z,20.10
2018-08-22T02:35:21.556Z,20.00
2018-08-22T02:40:17.624Z,19.90
2018-08-22T02:45:12.543Z,19.90
2018-08-22T02:50:07.388Z,20.00
2018-08-22T02:55:02.038Z,20.10
2018-08-22T02:59:56.780Z,20.10
2018-08-22T03:04:51.378Z,20.20
2018-08-22T03:09:46.087Z,20.10
2018-08-22T03:14:40.674Z,20.10
2018-08-22T03:19:35.507Z,20.10
2018-08-22T03:24:30.355Z,20.00
2018-08-22T03:29:24.822Z,19.90
2018-08-22T03:34:19.307Z,19.80
2018-08-22T03:39:13.782Z,19.80
2018-08-22T03:44:08.385Z,19.70
2018-08-22T03:49:02.836Z,19.70
2018-08-22T03:53:57.270Z,19.60
2018-08-22T03:58:51.724Z,19.60
2018-08-22T04:03:46.370Z,19.50
2018-08-22T04:08:40.790Z,19.40
2018-08-22T04:13:35.568Z,19.40
2018-08-22T04:18:30.114Z,19.40
2018-08-22T04:23:24.574Z,19.30
2018-08-22T04:28:19.096Z,19.30
2018-08-22T04:33:13.574Z,19.30
2018-08-22T04:38:08.302Z,19.20
2018-08-22T04:43:02.805Z,19.30
2018-08-22T04:47:57.289Z,19.30
2018-08-22T04:52:52.091Z,19.30
2018-08-22T04:57:46.577Z,19.30
2018-08-22T05:02:41.578Z,19.40
2018-08-22T05:07:36.099Z,19.50
2018-08-22T05:12:30.792Z,19.60
2018-08-22T05:17:25.223Z,19.70
2018-08-22T05:22:19.813Z,19.90
2018-08-22T05:27:14.290Z,20.10
2018-08-22T05:32:08.802Z,20.30
2018-08-22T05:37:03.616Z,20.40
2018-08-22T05:41:58.372Z,20.50
2018-08-22T05:46:52.813Z,20.70
2018-08-22T05:51:47.332Z,20.80
2018-08-22T05:56:42.133Z,21.00
2018-08-22T06:01:36.711Z,21.30
2018-08-22T06:06:31.388Z,22.80
2018-08-22T06:11:25.967Z,25.70
2018-08-22T06:16:20.466Z,27.90
2018-08-22T06:21:15.261Z,29.70
2018-08-22T06:26:09.930Z,31.80
2018-08-22T06:31:04.945Z,32.50
2018-08-22T06:35:59.754Z,33.20
2018-08-22T06:40:54.530Z,34.90
2018-08-22T06:45:49.786Z,36.90
2018-08-22T06:50:44.529Z,38.70
2018-08-22T06:55:39.227Z,39.70
2018-08-22T07:00:33.994Z,40.90
2018-08-22T07:05:29.031Z,41.90
2018-08-22T07:10:23.882Z,42.80
2018-08-22T07:15:18.656Z,43.00
2018-08-22T07:20:13.697Z,44.20
2018-08-22T07:25:08.498Z,44.50
2018-08-22T07:30:03.488Z,45.20
2018-08-22T07:34:58.338Z,45.80
2018-08-22T07:39:53.112Z,46.40
2018-08-22T07:44:47.890Z,46.50
2018-08-22T07:49:42.630Z,46.00
2018-08-22T07:54:42.520Z,46.30
2018-08-22T07:59:37.499Z,46.50
2018-08-22T08:04:32.364Z,46.50
2018-08-22T08:09:27.132Z,46.70
2018-08-22T08:14:21.966Z,47.60
2018-08-22T08:19:16.684Z,49.00
2018-08-22T08:24:11.445Z,49.60
2018-08-22T08:29:06.526Z,49.90
2018-08-22T08:34:01.270Z,50.20
2018-08-22T08:38:56.326Z,50.20
2018-08-22T08:43:51.069Z,49.60
2018-08-22T08:48:45.811Z,50.10
2018-08-22T08:53:40.728Z,50.40
2018-08-22T08:58:35.698Z,50.90
2018-08-22T09:03:30.618Z,51.20
2018-08-22T09:08:25.510Z,52.00
2018-08-22T09:13:20.241Z,53.00
2018-08-22T09:18:15.395Z,53.10
2018-08-22T09:23:10.574Z,53.80
2018-08-22T09:28:05.313Z,54.10
2018-08-22T09:33:00.263Z,55.30
2018-08-22T09:37:55.171Z,56.90
2018-08-22T09:42:49.916Z,57.20
2018-08-22T09:47:45.721Z,56.30
2018-08-22T09:52:40.729Z,55.50
2018-08-22T09:57:36.314Z,52.80
2018-08-22T10:02:31.133Z,48.00
2018-08-22T10:07:25.974Z,43.70
2018-08-22T10:12:20.852Z,41.00
2018-08-22T10:17:15.739Z,38.80
2018-08-22T10:22:10.660Z,36.80
2018-08-22T10:27:05.428Z,35.30
2018-08-22T10:32:00.415Z,34.10
2018-08-22T10:36:55.305Z,33.10
2018-08-22T10:41:50.114Z,32.40
2018-08-22T10:46:44.925Z,32.00
2018-08-22T10:51:39.891Z,31.60
2018-08-22T10:56:34.859Z,31.30
2018-08-22T11:01:29.878Z,31.20
2018-08-22T11:06:24.714Z,31.10
2018-08-22T11:11:20.209Z,31.00
2018-08-22T11:16:15.561Z,30.90
2018-08-22T11:21:27.239Z,30.80
2018-08-22T11:26:38.911Z,30.80
2018-08-22T11:31:50.757Z,30.80
2018-08-22T11:37:00.371Z,30.70
2018-08-22T11:41:55.507Z,30.70
2018-08-22T11:46:50.499Z,30.70
2018-08-22T11:51:45.372Z,30.60
2018-08-22T11:56:40.116Z,30.60
2018-08-22T12:01:35.047Z,30.30
2018-08-22T12:06:30.098Z,30.40
2018-08-22T12:11:24.890Z,30.50
2018-08-22T12:16:19.772Z,30.40
2018-08-22T12:21:14.516Z,30.50
2018-08-22T12:26:10.403Z,30.60
2018-08-22T12:31:05.306Z,30.80
2018-08-22T12:36:00.623Z,30.70
2018-08-22T12:40:55.742Z,30.80
2018-08-22T12:45:50.760Z,30.90
2018-08-22T12:50:48.132Z,30.90
2018-08-22T12:55:43.057Z,31.00
2018-08-22T13:00:38.257Z,31.10
2018-08-22T13:05:33.266Z,31.20
2018-08-22T13:10:28.105Z,31.20
2018-08-22T13:15:23.700Z,31.20
2018-08-22T13:20:18.722Z,31.30
2018-08-22T13:25:14.158Z,31.00
2018-08-22T13:30:09.889Z,31.00
2018-08-22T13:35:05.292Z,31.10
2018-08-22T13:40:00.096Z,31.20
2018-08-22T13:44:55.108Z,31.30
2018-08-22T13:49:49.958Z,31.40
2018-08-22T13:54:45.024Z,31.40
2018-08-22T13:59:39.774Z,31.50
2018-08-22T14:04:36.025Z,31.50
2018-08-22T14:09:31.166Z,31.50
2018-08-22T14:14:26.082Z,31.60
2018-08-22T14:19:21.053Z,31.30
2018-08-22T14:24:15.935Z,31.20
2018-08-22T14:29:11.098Z,31.30
2018-08-22T14:34:06.499Z,31.40
2018-08-22T14:39:01.868Z,31.40
2018-08-22T14:43:56.878Z,31.50
2018-08-22T14:48:52.522Z,31.60
2018-08-22T14:53:47.411Z,31.60
2018-08-22T14:58:42.456Z,31.60
2018-08-22T15:03:39.342Z,31.50
2018-08-22T15:08:34.175Z,31.30
2018-08-22T15:13:29.074Z,31.30
2018-08-22T15:18:23.822Z,31.20
2018-08-22T15:23:18.673Z,31.10
2018-08-22T15:28:13.405Z,31.00
2018-08-22T15:33:08.339Z,30.80
2018-08-22T15:38:03.102Z,30.80
2018-08-22T15:42:57.972Z,30.60
2018-08-22T15:47:52.736Z,30.60
2018-08-22T15:52:47.559Z,30.60
2018-08-22T15:58:06.748Z,30.50
2018-08-22T16:03:02.833Z,30.30
2018-08-22T16:07:57.897Z,30.30
2018-08-22T16:12:52.792Z,30.10
2018-08-22T16:17:53.440Z,30.10
2018-08-22T16:22:48.302Z,30.00
2018-08-22T16:27:47.673Z,29.90
2018-08-22T16:32:42.591Z,29.80
2018-08-22T16:37:38.772Z,29.70
2018-08-22T16:42:38.805Z,29.50
2018-08-22T16:47:35.376Z,29.30
2018-08-22T16:52:30.189Z,29.20
2018-08-22T16:57:25.108Z,29.00
2018-08-22T17:02:20.478Z,28.90
2018-08-22T17:07:17.514Z,28.80
2018-08-22T17:12:12.328Z,28.70
2018-08-22T17:17:17.528Z,28.50
2018-08-22T17:22:28.278Z,28.40
2018-08-22T17:27:23.037Z,28.20
2018-08-22T17:32:17.775Z,28.10
2018-08-22T17:37:12.536Z,27.90
2018-08-22T17:42:07.278Z,27.80
2018-08-22T17:47:02.028Z,27.60
2018-08-22T17:51:59.540Z,27.50
2018-08-22T17:57:11.707Z,27.30
2018-08-22T18:02:06.680Z,27.10
2018-08-22T18:07:02.049Z,27.00
2018-08-22T18:11:56.924Z,26.80
2018-08-22T18:16:56.436Z,26.60
2018-08-22T18:21:51.319Z,26.40
2018-08-22T18:26:47.962Z,26.30
2018-08-22T18:31:42.483Z,26.20
2018-08-22T18:36:37.538Z,26.00
2018-08-22T18:41:32.332Z,25.90
2018-08-22T18:46:27.292Z,25.80
2018-08-22T18:51:21.860Z,25.60
2018-08-22T18:56:17.819Z,25.40
2018-08-22T19:01:12.302Z,25.30
2018-08-22T19:06:07.212Z,25.10
2018-08-22T19:11:01.710Z,25.00
2018-08-22T19:15:58.501Z,24.90
2018-08-22T19:20:56.887Z,24.70
2018-08-22T19:25:52.456Z,24.60
2018-08-22T19:30:47.210Z,24.50
2018-08-22T19:35:42.073Z,24.40
2018-08-22T19:40:37.348Z,24.30
2018-08-22T19:45:32.174Z,24.30
2018-08-22T19:50:26.959Z,24.20
2018-08-22T19:55:21.524Z,24.10
2018-08-22T20:00:16.099Z,24.00
2018-08-22T20:05:12.327Z,23.90
2018-08-22T20:10:07.491Z,23.80
2018-08-22T20:15:02.145Z,23.70
2018-08-22T20:19:57.061Z,23.60
2018-08-22T20:24:51.548Z,23.60
2018-08-22T20:29:46.360Z,23.50
2018-08-22T20:34:40.878Z,23.40
2018-08-22T20:39:35.690Z,23.30
2018-08-22T20:44:30.318Z,23.30
2018-08-22T20:49:25.653Z,23.10
2018-08-22T20:54:23.466Z,23.10
2018-08-22T20:59:19.707Z,23.10
2018-08-22T21:04:14.671Z,23.00
2018-08-22T21:09:09.952Z,23.00
2018-08-22T21:14:04.424Z,22.80
2018-08-22T21:18:58.941Z,22.80
2018-08-22T21:23:54.165Z,22.70
2018-08-22T21:28:48.629Z,22.60
2018-08-22T21:33:44.010Z,22.60
2018-08-22T21:38:38.530Z,22.50
2018-08-22T21:43:33.092Z,22.40
2018-08-22T21:48:27.597Z,22.40
2018-08-22T21:53:22.245Z,22.30
2018-08-22T21:58:16.741Z,22.20
2018-08-22T22:03:12.141Z,22.20
2018-08-22T22:08:07.165Z,22.10
2018-08-22T22:13:01.652Z,22.00
2018-08-22T22:17:56.534Z,22.00
2018-08-22T22:22:51.145Z,21.90
2018-08-22T22:27:46.578Z,21.80
2018-08-22T22:32:41.378Z,21.70
2018-08-22T22:37:36.331Z,21.70
2018-08-22T22:42:31.002Z,21.60
2018-08-22T22:47:30.899Z,21.50
2018-08-22T22:52:33.568Z,21.50
2018-08-22T22:57:29.660Z,21.50
2018-08-22T23:02:25.446Z,21.40
2018-08-22T23:07:25.870Z,21.30
2018-08-22T23:12:25.075Z,21.30
2018-08-22T23:17:19.601Z,21.20
2018-08-22T23:22:14.371Z,21.20
2018-08-22T23:27:09.003Z,21.10
2018-08-22T23:32:03.484Z,21.10
2018-08-22T23:36:58.222Z,21.10
2018-08-22T23:41:52.701Z,21.00
2018-08-22T23:46:47.219Z,20.90
2018-08-22T23:51:41.672Z,20.80
2018-08-22T23:56:36.168Z,20.80
